Time;durP1;ratioP1;P1;durP2;ratioP2;P2;SDS_P1;SDS_P2;PMS_P1;PMS_P2;Temp;Humidity;BMP_temperature;BMP_pressure;BME280_temperature;BME280_humidity;BME280_pressure;Samples;Min_cycle;Max_cycle;Signal;HPM_P1;HPM_P2
2023/12/05 00:04:36;;;;;;;18.50;10.32;;;;;;;0.03;90.79;99157.63;10436826;28;20049;-78
2023/12/05 00:09:39;;;;;;;18.27;10.98;;;;;;;-0.02;90.00;99154.44;10452631;28;20435;-77
2023/12/05 00:14:44;;;;;;;15.98;9.65;;;;;;;-0.07;91.57;99138.84;10470965;28;20071;-76
2023/12/05 00:19:47;;;;;;;17.60;9.88;;;;;;;-0.12;92.58;99128.53;10457809;28;20053;-78
2023/12/05 00:24:50;;;;;;;17.73;10.13;;;;;;;-0.20;93.29;99138.69;10440564;28;20053;-78
2023/12/05 00:29:54;;;;;;;19.27;11.25;;;;;;;0.02;94.02;99142.75;10434337;28;20041;-78
2023/12/05 00:34:57;;;;;;;21.48;11.90;;;;;;;-0.04;95.12;99130.75;10443349;28;20049;-78
2023/12/05 00:40:00;;;;;;;19.23;10.52;;;;;;;-0.07;96.54;99128.28;10458365;28;20041;-77
2023/12/05 00:45:06;;;;;;;19.65;12.02;;;;;;;0.01;95.73;99122.56;10450379;28;20037;-77
2023/12/05 00:50:09;;;;;;;22.30;12.23;;;;;;;-0.29;97.86;99126.88;10465595;28;20047;-78
2023/12/05 00:55:13;;;;;;;20.67;11.88;;;;;;;-0.04;96.97;99119.34;10451326;28;20045;-77
2023/12/05 01:00:19;;;;;;;24.33;12.30;;;;;;;-0.15;97.61;99125.25;10438003;28;20045;-77
2023/12/05 01:05:22;;;;;;;21.65;12.77;;;;;;;-0.02;96.69;99118.31;10461006;28;20106;-78
2023/12/05 01:10:26;;;;;;;20.02;12.68;;;;;;;0.05;95.93;99117.00;10446761;28;20044;-78
2023/12/05 01:15:30;;;;;;;19.42;12.27;;;;;;;-0.08;96.06;99122.16;10451996;28;20041;-78
2023/12/05 01:20:34;;;;;;;18.75;11.95;;;;;;;0.07;95.50;99114.28;10480967;28;20055;-78
2023/12/05 01:25:37;;;;;;;18.15;12.70;;;;;;;0.00;94.59;99100.63;10467679;28;20044;-78
2023/12/05 01:30:42;;;;;;;18.83;11.52;;;;;;;-0.06;94.72;99106.22;10452969;28;20444;-78
2023/12/05 01:35:45;;;;;;;16.38;10.80;;;;;;;0.07;94.23;99103.72;10443417;28;20041;-77
2023/12/05 01:40:47;;;;;;;18.63;10.48;;;;;;;0.05;94.32;99105.59;10458895;28;20072;-79
2023/12/05 01:45:53;;;;;;;18.05;10.65;;;;;;;0.14;94.13;99103.28;10430195;28;20065;-79
2023/12/05 01:50:57;;;;;;;17.08;11.02;;;;;;;0.01;94.72;99098.81;10447277;28;20082;-79
2023/12/05 01:56:03;;;;;;;17.85;11.90;;;;;;;0.09;93.43;99086.03;10457213;28;20065;-79
2023/12/05 02:01:09;;;;;;;16.00;11.10;;;;;;;-0.11;94.09;99079.22;10450511;28;20245;-79
2023/12/05 02:06:13;;;;;;;15.85;10.32;;;;;;;0.23;92.93;99074.66;10451825;28;20394;-78
2023/12/05 02:11:17;;;;;;;17.00;11.18;;;;;;;0.29;92.95;99087.47;10452545;28;20048;-79
2023/12/05 02:16:29;;;;;;;16.60;11.40;;;;;;;0.13;92.95;99092.81;10472061;28;20071;-78
2023/12/05 02:21:37;;;;;;;16.17;10.35;;;;;;;0.34;92.42;99083.63;10461764;28;20041;-78
2023/12/05 02:26:47;;;;;;;15.50;10.10;;;;;;;0.34;92.63;99074.84;10478488;28;20590;-78
2023/12/05 02:31:53;;;;;;;18.25;11.20;;;;;;;0.26;92.61;99074.47;10475171;28;20465;-78
2023/12/05 02:37:04;;;;;;;18.08;10.55;;;;;;;0.39;92.17;99070.16;10458326;28;20052;-77
2023/12/05 02:42:12;;;;;;;17.05;10.73;;;;;;;0.22;92.29;99063.25;10481612;28;20045;-79
2023/12/05 02:47:20;;;;;;;18.98;11.68;;;;;;;0.09;93.45;99062.25;10461621;28;20106;-77
2023/12/05 02:52:23;;;;;;;18.65;11.02;;;;;;;0.20;92.70;99062.47;10468124;28;20540;-79
2023/12/05 02:57:26;;;;;;;21.15;11.50;;;;;;;0.30;93.77;99060.13;10465034;28;20116;-78
2023/12/05 03:02:30;;;;;;;20.55;11.88;;;;;;;0.09;94.36;99056.97;10460565;28;20059;-78
2023/12/05 03:07:33;;;;;;;19.77;11.38;;;;;;;0.16;94.70;99048.59;10445917;28;20055;-77
2023/12/05 03:12:36;;;;;;;19.75;11.93;;;;;;;0.18;94.54;99048.50;10448490;28;20045;-79
2023/12/05 03:17:41;;;;;;;20.33;12.05;;;;;;;0.20;94.44;99048.41;10436515;28;20068;-78
2023/12/05 03:22:44;;;;;;;22.50;11.63;;;;;;;0.26;94.65;99040.13;10429911;28;20053;-77
2023/12/05 03:27:47;;;;;;;20.23;13.18;;;;;;;0.23;94.12;99038.50;10461439;28;20120;-77
2023/12/05 03:32:52;;;;;;;18.95;11.93;;;;;;;0.17;94.07;99031.81;10448845;28;20120;-78
2023/12/05 03:37:55;;;;;;;18.90;11.80;;;;;;;0.27;94.35;99028.59;10442146;28;20072;-78
2023/12/05 03:42:58;;;;;;;18.23;11.73;;;;;;;0.33;93.83;99031.75;10446788;28;20045;-78
2023/12/05 03:48:02;;;;;;;19.55;11.20;;;;;;;0.32;93.74;99024.75;10452772;28;20053;-78
2023/12/05 03:53:05;;;;;;;20.45;12.10;;;;;;;0.33;93.62;99038.78;10454204;28;20045;-77
2023/12/05 03:58:09;;;;;;;19.05;10.18;;;;;;;0.43;93.78;99028.53;10435400;28;20048;-77
2023/12/05 04:03:14;;;;;;;20.38;12.27;;;;;;;0.38;93.63;99028.81;10447155;28;20030;-77
2023/12/05 04:08:17;;;;;;;21.38;12.55;;;;;;;0.48;93.90;99029.94;10435023;28;20382;-78
2023/12/05 04:13:20;;;;;;;20.88;12.48;;;;;;;0.45;93.72;99024.00;10452309;28;20579;-78
2023/12/05 04:18:34;;;;;;;18.77;12.10;;;;;;;0.48;93.90;99026.47;10441028;28;20049;-79
2023/12/05 04:23:37;;;;;;;19.48;12.13;;;;;;;0.51;93.33;99024.47;10457858;28;20037;-78
2023/12/05 04:28:40;;;;;;;18.80;12.43;;;;;;;0.44;94.13;99027.59;10472722;28;20156;-78
2023/12/05 04:33:44;;;;;;;19.65;12.25;;;;;;;0.51;93.92;99021.84;10434250;28;20049;-78
2023/12/05 04:38:47;;;;;;;23.25;14.43;;;;;;;0.43;94.15;99021.44;10463918;28;20108;-78
2023/12/05 04:43:50;;;;;;;22.80;12.40;;;;;;;0.59;94.29;99016.09;10458323;28;20053;-78
2023/12/05 04:48:55;;;;;;;20.17;11.73;;;;;;;0.59;94.04;99011.66;10441760;28;20128;-78
2023/12/05 04:53:58;;;;;;;19.45;12.02;;;;;;;0.69;94.35;99011.94;10445270;28;20101;-78
2023/12/05 04:59:01;;;;;;;18.70;11.32;;;;;;;0.65;94.41;99017.50;10458790;28;20056;-78
2023/12/05 05:04:05;;;;;;;19.10;12.07;;;;;;;0.50;94.44;99019.31;10490315;28;20077;-77
2023/12/05 05:09:08;;;;;;;20.83;12.57;;;;;;;0.45;94.27;99018.72;10485723;28;20056;-77
2023/12/05 05:14:11;;;;;;;18.10;11.88;;;;;;;0.52;93.98;99033.25;10474126;28;20045;-78
2023/12/05 05:19:16;;;;;;;21.02;12.60;;;;;;;0.68;94.46;99025.25;10446870;28;20049;-77
2023/12/05 05:24:19;;;;;;;20.80;12.23;;;;;;;0.68;94.35;99027.88;10442501;28;20096;-77
2023/12/05 05:29:22;;;;;;;20.85;11.52;;;;;;;0.66;94.61;99020.06;10444496;28;20037;-77
2023/12/05 05:34:26;;;;;;;21.48;12.23;;;;;;;0.70;94.65;99021.56;10461550;28;20318;-78
2023/12/05 05:39:29;;;;;;;16.48;10.77;;;;;;;0.61;94.71;99022.97;10473941;28;20037;-78
2023/12/05 05:44:32;;;;;;;17.95;11.75;;;;;;;0.58;94.42;99022.31;10453857;28;20056;-77
2023/12/05 05:49:37;;;;;;;20.13;11.48;;;;;;;0.65;94.98;99017.50;10461754;28;20049;-77
2023/12/05 05:54:41;;;;;;;19.30;11.27;;;;;;;0.76;94.97;99015.88;10466372;28;20095;-77
2023/12/05 05:59:44;;;;;;;19.95;11.68;;;;;;;0.49;94.98;99017.59;10473538;28;20088;-78
2023/12/05 06:04:48;;;;;;;20.77;12.52;;;;;;;0.67;94.93;99016.47;10481989;28;20121;-79
2023/12/05 06:09:52;;;;;;;19.13;11.77;;;;;;;0.75;95.06;99013.34;10470869;28;20049;-79
2023/12/05 06:14:55;;;;;;;21.50;12.05;;;;;;;0.70;95.48;99015.44;10458402;28;20053;-77
2023/12/05 06:19:59;;;;;;;20.60;12.88;;;;;;;0.77;95.65;99012.31;10434456;28;20033;-78
2023/12/05 06:25:02;;;;;;;20.70;12.02;;;;;;;0.72;96.42;99014.38;10455378;28;20049;-78
2023/12/05 06:30:07;;;;;;;19.60;12.63;;;;;;;0.65;97.25;99017.50;10452216;28;20137;-78
2023/12/05 06:35:26;;;;;;;21.17;13.50;;;;;;;0.36;98.59;99020.16;10443665;28;20048;-78
2023/12/05 06:40:29;;;;;;;23.13;13.77;;;;;;;0.51;99.17;99026.28;10456470;28;20049;-79
2023/12/05 06:45:34;;;;;;;23.10;13.38;;;;;;;0.67;98.80;99021.75;10450313;28;20033;-78
2023/12/05 06:50:38;;;;;;;23.90;12.98;;;;;;;0.68;99.20;99018.16;10467647;28;20053;-77
2023/12/05 06:55:42;;;;;;;26.90;14.25;;;;;;;0.45;100.00;99024.88;10432322;28;20099;-78
2023/12/05 07:00:45;;;;;;;26.52;14.30;;;;;;;0.68;100.00;99025.25;10447391;28;20037;-77
2023/12/05 07:05:49;;;;;;;22.98;13.40;;;;;;;0.59;100.00;99026.66;10445156;28;20055;-78
2023/12/05 07:10:52;;;;;;;13.00;5.10;;;;;;;0.96;100.00;99030.53;10449904;28;20041;-78
2023/12/05 07:15:56;;;;;;;38.47;20.27;;;;;;;2.04;100.00;99034.13;10456180;28;20040;-78
2023/12/05 07:21:01;;;;;;;35.60;18.88;;;;;;;2.48;99.80;99036.38;10450416;28;20068;-79
2023/12/05 07:26:05;;;;;;;13.05;9.35;;;;;;;2.12;96.13;99045.06;10443305;28;20044;-79
2023/12/05 07:31:08;;;;;;;15.32;8.98;;;;;;;1.97;97.69;99040.78;10449615;28;20097;-78
2023/12/05 07:36:14;;;;;;;14.57;9.55;;;;;;;1.84;96.86;99044.25;10456167;28;20535;-79
2023/12/05 07:41:22;;;;;;;14.65;10.10;;;;;;;1.19;99.10;99046.72;10476029;28;20044;-79
2023/12/05 07:46:25;;;;;;;17.83;11.20;;;;;;;0.96;100.00;99054.31;10470534;28;20045;-79
2023/12/05 07:51:30;;;;;;;22.60;12.80;;;;;;;0.90;100.00;99059.13;10462560;28;20072;-79
2023/12/05 07:56:33;;;;;;;23.60;13.65;;;;;;;0.81;100.00;99064.03;10457825;28;20056;-77
2023/12/05 08:01:36;;;;;;;26.98;14.65;;;;;;;0.73;100.00;99065.44;10455573;28;20106;-78
2023/12/05 08:06:40;;;;;;;29.27;15.32;;;;;;;0.80;100.00;99065.00;10472697;28;20067;-77
2023/12/05 08:11:43;;;;;;;27.23;16.23;;;;;;;0.77;100.00;99064.34;10474570;28;20037;-79
2023/12/05 08:16:46;;;;;;;24.80;15.05;;;;;;;0.92;100.00;99073.94;10471754;28;20109;-79
2023/12/05 08:21:51;;;;;;;30.40;16.40;;;;;;;0.89;100.00;99068.84;10473040;28;20045;-79
2023/12/05 08:26:55;;;;;;;29.23;16.92;;;;;;;0.94;100.00;99082.63;10459526;28;20034;-79
2023/12/05 08:31:58;;;;;;;26.33;15.48;;;;;;;1.01;100.00;99083.94;10456034;28;20567;-80
2023/12/05 08:37:04;;;;;;;35.20;16.85;;;;;;;1.06;100.00;99083.66;10447382;28;20455;-78
2023/12/05 08:42:08;;;;;;;30.80;17.50;;;;;;;1.15;100.00;99082.22;10452335;28;20037;-80
2023/12/05 08:47:11;;;;;;;33.42;16.35;;;;;;;1.13;100.00;99085.00;10463790;28;20069;-79
2023/12/05 08:52:15;;;;;;;29.98;16.75;;;;;;;1.21;100.00;99093.28;10472817;28;20044;-79
2023/12/05 08:57:18;;;;;;;25.92;16.33;;;;;;;1.27;100.00;99094.69;10450838;28;20056;-80
2023/12/05 09:02:24;;;;;;;33.72;17.45;;;;;;;1.19;100.00;99091.69;10442279;28;20029;-79
2023/12/05 09:07:28;;;;;;;29.00;16.67;;;;;;;1.19;100.00;99089.88;10451465;28;20057;-79
2023/12/05 09:12:32;;;;;;;32.85;17.92;;;;;;;1.24;100.00;99098.38;10454943;28;20068;-80
2023/12/05 09:17:36;;;;;;;30.63;17.23;;;;;;;1.39;100.00;99099.19;10437184;28;20103;-80
2023/12/05 09:22:41;;;;;;;30.30;16.80;;;;;;;1.44;100.00;99102.41;10462134;28;20041;-80
2023/12/05 09:27:45;;;;;;;26.70;16.23;;;;;;;1.53;100.00;99110.72;10488799;28;20060;-77
2023/12/05 09:32:48;;;;;;;32.78;17.85;;;;;;;1.59;100.00;99111.19;10491664;28;20055;-78
2023/12/05 09:37:53;;;;;;;33.15;19.88;;;;;;;1.60;100.00;99122.63;10471995;28;20114;-81
2023/12/05 09:43:00;;;;;;;35.42;19.38;;;;;;;1.54;100.00;99115.03;10460562;28;20041;-80
2023/12/05 09:48:08;;;;;;;35.60;19.40;;;;;;;1.67;100.00;99122.13;10451806;28;20060;-83
2023/12/05 09:53:18;;;;;;;31.33;18.15;;;;;;;1.70;100.00;99118.41;10441527;28;20072;-82
2023/12/05 09:58:23;;;;;;;34.05;17.77;;;;;;;1.67;100.00;99127.44;10456390;28;20056;-80
2023/12/05 10:03:33;;;;;;;35.58;16.88;;;;;;;1.60;100.00;99114.69;10434911;28;20044;-81
2023/12/05 10:08:39;;;;;;;42.25;19.42;;;;;;;1.75;100.00;99115.47;10455413;28;20051;-80
2023/12/05 10:13:42;;;;;;;29.85;17.95;;;;;;;1.86;100.00;99119.13;10452695;28;20029;-81
2023/12/05 10:18:47;;;;;;;27.92;16.58;;;;;;;1.90;100.00;99115.34;10454968;28;20103;-79
2023/12/05 10:23:52;;;;;;;30.50;16.08;;;;;;;2.03;100.00;99111.88;10438000;28;20046;-81
2023/12/05 10:28:57;;;;;;;28.90;15.27;;;;;;;2.21;100.00;99117.75;10433328;28;20045;-81
2023/12/05 10:34:05;;;;;;;30.63;16.45;;;;;;;2.20;100.00;99113.44;10441088;28;20116;-79
2023/12/05 10:39:10;;;;;;;26.17;15.80;;;;;;;2.23;100.00;99105.28;10448281;28;20064;-78
2023/12/05 10:44:14;;;;;;;30.05;17.20;;;;;;;2.24;100.00;99106.94;10443928;28;20523;-78
2023/12/05 10:49:18;;;;;;;25.55;14.85;;;;;;;2.35;100.00;99117.69;10449260;28;20036;-79
2023/12/05 10:54:23;;;;;;;28.27;16.17;;;;;;;2.47;100.00;99113.34;10436772;28;20125;-80
2023/12/05 10:59:27;;;;;;;28.42;16.88;;;;;;;2.61;100.00;99114.16;10425064;28;20085;-80
2023/12/05 11:04:32;;;;;;;32.17;16.60;;;;;;;2.59;100.00;99115.22;10432972;28;20055;-79
2023/12/05 11:09:36;;;;;;;22.10;14.38;;;;;;;2.73;100.00;99109.81;10443121;28;20084;-79
2023/12/05 11:14:44;;;;;;;27.10;14.27;;;;;;;2.76;100.00;99108.75;10439522;28;20097;-80
2023/12/05 11:20:06;;;;;;;26.05;15.40;;;;;;;2.69;100.00;99107.47;10430787;28;20052;-80
2023/12/05 11:25:36;;;;;;;23.42;13.88;;;;;;;2.60;100.00;99120.38;10434156;28;20049;-80
2023/12/05 11:30:54;;;;;;;25.20;15.07;;;;;;;2.49;100.00;99124.69;10420822;28;20069;-80
2023/12/05 11:36:05;;;;;;;24.65;14.93;;;;;;;2.60;100.00;99117.75;10437533;28;20064;-78
2023/12/05 11:41:19;;;;;;;22.17;14.13;;;;;;;2.64;100.00;99120.22;10454978;28;20527;-79
2023/12/05 11:46:22;;;;;;;23.30;13.77;;;;;;;2.75;100.00;99110.56;10460053;28;20061;-78
2023/12/05 11:51:25;;;;;;;21.40;13.57;;;;;;;2.80;100.00;99121.69;10471778;28;20133;-78
2023/12/05 11:56:30;;;;;;;21.60;13.50;;;;;;;2.97;100.00;99120.53;10462694;28;20065;-79
2023/12/05 12:01:33;;;;;;;20.50;13.18;;;;;;;3.23;100.00;99118.69;10459675;28;20037;-80
2023/12/05 12:06:36;;;;;;;22.10;13.48;;;;;;;3.39;100.00;99123.75;10461907;28;20064;-79
2023/12/05 12:11:42;;;;;;;23.67;13.23;;;;;;;3.29;99.22;99114.75;10457140;28;20041;-79
2023/12/05 12:16:51;;;;;;;19.08;11.93;;;;;;;3.26;99.09;99121.16;10454121;28;20049;-79
2023/12/05 12:21:54;;;;;;;19.08;12.20;;;;;;;3.30;99.28;99129.72;10463337;28;20071;-78
2023/12/05 12:26:59;;;;;;;18.25;11.73;;;;;;;3.39;99.08;99126.41;10460396;28;20055;-79
2023/12/05 12:32:07;;;;;;;20.27;11.05;;;;;;;3.45;99.80;99122.47;10464909;28;20075;-80
2023/12/05 12:37:14;;;;;;;15.43;10.20;;;;;;;3.54;99.16;99129.78;10457825;28;20053;-78
2023/12/05 12:42:25;;;;;;;20.08;11.75;;;;;;;3.69;98.35;99138.44;10457664;28;20071;-79
2023/12/05 12:47:28;;;;;;;19.73;11.27;;;;;;;3.73;98.15;99138.13;10454964;28;20052;-78
2023/12/05 12:52:31;;;;;;;15.05;10.27;;;;;;;3.70;97.03;99143.66;10440345;28;20063;-78
2023/12/05 12:57:36;;;;;;;15.35;9.80;;;;;;;3.80;97.63;99135.88;10426802;28;20034;-79
2023/12/05 13:02:39;;;;;;;15.63;10.60;;;;;;;3.75;96.94;99139.81;10445610;28;20558;-78
2023/12/05 13:07:42;;;;;;;15.18;9.68;;;;;;;3.69;96.98;99136.63;10442433;28;20403;-79
2023/12/05 13:12:47;;;;;;;13.55;9.13;;;;;;;3.71;96.68;99139.19;10442987;28;20046;-79
2023/12/05 13:17:58;;;;;;;14.32;9.77;;;;;;;3.61;96.78;99140.81;10425721;28;20053;-79
2023/12/05 13:23:01;;;;;;;17.27;11.10;;;;;;;3.44;96.59;99150.00;10446862;28;20518;-76
2023/12/05 13:28:05;;;;;;;19.25;11.88;;;;;;;3.36;97.47;99152.34;10440144;28;20617;-77
2023/12/05 13:33:09;;;;;;;17.17;10.95;;;;;;;3.41;97.64;99159.00;10436598;28;20045;-79
2023/12/05 13:38:15;;;;;;;17.42;10.90;;;;;;;3.35;98.20;99148.84;10441390;28;20132;-80
2023/12/05 13:43:19;;;;;;;17.17;11.52;;;;;;;3.26;98.52;99150.34;10483570;28;20052;-81
2023/12/05 13:48:22;;;;;;;17.85;11.02;;;;;;;3.31;99.56;99146.50;10477712;28;20054;-80
2023/12/05 13:53:25;;;;;;;17.38;10.35;;;;;;;3.25;99.18;99151.28;10455976;28;20079;-79
2023/12/05 13:58:30;;;;;;;17.23;10.98;;;;;;;3.25;98.93;99148.63;10454079;28;20051;-78
2023/12/05 14:03:33;;;;;;;15.18;9.63;;;;;;;3.28;98.89;99156.38;10434303;28;20124;-78
2023/12/05 14:08:37;;;;;;;14.85;9.77;;;;;;;3.30;99.28;99152.78;10453539;28;20488;-77
2023/12/05 14:13:41;;;;;;;18.50;10.77;;;;;;;3.26;99.43;99160.97;10450142;28;20042;-80
2023/12/05 14:18:44;;;;;;;14.05;9.55;;;;;;;3.34;99.10;99164.84;10449452;28;20562;-78
2023/12/05 14:23:47;;;;;;;15.60;10.43;;;;;;;3.37;99.30;99165.47;10457920;28;20103;-80
2023/12/05 14:28:52;;;;;;;13.60;9.88;;;;;;;3.22;98.42;99174.53;10479336;28;20120;-80
2023/12/05 14:33:56;;;;;;;15.90;11.13;;;;;;;3.22;98.56;99177.19;10456355;28;20088;-79
2023/12/05 14:38:59;;;;;;;15.98;10.32;;;;;;;3.22;98.14;99178.03;10472391;28;20369;-78
2023/12/05 14:44:14;;;;;;;12.15;9.27;;;;;;;3.18;98.95;99184.53;10450387;28;20033;-80
2023/12/05 14:49:17;;;;;;;14.27;9.60;;;;;;;3.19;98.45;99188.03;10454131;28;20076;-79
2023/12/05 14:54:21;;;;;;;15.32;9.75;;;;;;;3.16;98.12;99194.41;10453088;28;20068;-79
2023/12/05 14:59:26;;;;;;;13.10;9.20;;;;;;;3.27;98.06;99193.66;10454838;28;20045;-79
2023/12/05 15:04:29;;;;;;;11.88;8.57;;;;;;;3.21;98.53;99202.88;10452204;28;20586;-80
2023/12/05 15:09:33;;;;;;;16.45;10.30;;;;;;;3.24;98.61;99209.78;10465982;28;20053;-80
2023/12/05 15:14:38;;;;;;;13.57;10.13;;;;;;;3.23;98.93;99208.91;10434975;28;20046;-79
2023/12/05 15:19:41;;;;;;;13.73;9.18;;;;;;;3.26;98.44;99223.78;10428168;28;20098;-80
2023/12/05 15:25:06;;;;;;;13.55;9.20;;;;;;;3.24;98.29;99218.59;10459188;28;20037;-79
2023/12/05 15:30:12;;;;;;;13.90;10.13;;;;;;;3.28;99.12;99225.38;10448761;28;20187;-80
2023/12/05 15:35:16;;;;;;;13.05;9.10;;;;;;;3.24;98.68;99231.88;10467066;28;20072;-79
2023/12/05 15:40:19;;;;;;;16.83;10.68;;;;;;;3.22;98.85;99236.41;10465081;28;20057;-80
2023/12/05 15:45:23;;;;;;;15.05;9.45;;;;;;;3.26;98.96;99239.72;10467732;28;20037;-81
2023/12/05 15:50:27;;;;;;;15.20;10.57;;;;;;;3.16;99.14;99238.66;10472266;28;20060;-79
2023/12/05 15:55:32;;;;;;;16.27;12.00;;;;;;;3.11;99.57;99235.47;10472422;28;20117;-81
2023/12/05 16:00:36;;;;;;;15.60;11.10;;;;;;;3.08;99.13;99244.47;10458959;28;20053;-81
2023/12/05 16:05:40;;;;;;;18.33;12.13;;;;;;;3.08;99.18;99241.84;10459353;28;20057;-80
2023/12/05 16:10:45;;;;;;;18.65;12.13;;;;;;;3.12;99.21;99242.47;10482457;28;20052;-81
2023/12/05 16:15:49;;;;;;;23.02;13.10;;;;;;;3.03;99.48;99258.06;10464034;28;20073;-80
2023/12/05 16:20:52;;;;;;;18.63;12.05;;;;;;;3.08;100.00;99257.75;10468369;28;20071;-81
2023/12/05 16:25:59;;;;;;;19.77;13.15;;;;;;;3.14;100.00;99265.28;10455991;28;20037;-80
2023/12/05 16:31:04;;;;;;;21.98;14.13;;;;;;;3.11;99.87;99257.53;10444771;28;20072;-81
2023/12/05 16:36:09;;;;;;;25.83;13.18;;;;;;;3.16;100.00;99263.38;10459814;28;20045;-81
2023/12/05 16:41:13;;;;;;;21.95;13.43;;;;;;;3.23;100.00;99274.41;10458337;28;20381;-80
2023/12/05 16:46:18;;;;;;;22.17;13.18;;;;;;;3.26;100.00;99277.75;10439927;28;20041;-80
2023/12/05 16:51:22;;;;;;;18.30;12.30;;;;;;;3.22;100.00;99272.72;10463545;28;20053;-79
2023/12/05 16:56:28;;;;;;;22.52;13.10;;;;;;;3.29;100.00;99281.97;10462371;28;20041;-79
2023/12/05 17:01:32;;;;;;;20.55;12.10;;;;;;;3.28;100.00;99277.63;10459285;28;20051;-80
2023/12/05 17:06:36;;;;;;;18.88;13.20;;;;;;;3.27;100.00;99289.19;10462066;28;20112;-80
2023/12/05 17:11:39;;;;;;;21.40;14.35;;;;;;;3.26;100.00;99290.13;10471584;28;20075;-79
2023/12/05 17:16:43;;;;;;;23.58;14.73;;;;;;;3.26;100.00;99291.00;10479127;28;20049;-79
2023/12/05 17:21:46;;;;;;;22.10;16.10;;;;;;;3.24;100.00;99295.56;10465356;28;20052;-79
2023/12/05 17:26:49;;;;;;;24.52;15.27;;;;;;;3.23;100.00;99293.84;10468275;28;20044;-80
2023/12/05 17:31:54;;;;;;;24.15;16.25;;;;;;;3.22;100.00;99296.63;10476927;28;20141;-81
2023/12/05 17:36:57;;;;;;;26.92;17.65;;;;;;;3.24;100.00;99310.66;10464819;28;20048;-79
2023/12/05 17:42:00;;;;;;;25.67;16.92;;;;;;;3.22;100.00;99309.88;10487822;28;20504;-79
2023/12/05 17:47:04;;;;;;;19.45;14.43;;;;;;;3.18;100.00;99324.31;10495778;28;20037;-80
2023/12/05 17:52:08;;;;;;;21.23;14.93;;;;;;;3.14;100.00;99313.06;10482003;28;20044;-80
2023/12/05 17:57:12;;;;;;;23.65;14.43;;;;;;;3.08;100.00;99321.44;10468882;28;20041;-81
2023/12/05 18:02:17;;;;;;;21.13;14.80;;;;;;;3.04;100.00;99325.22;10479011;28;20052;-81
2023/12/05 18:07:20;;;;;;;28.48;16.48;;;;;;;3.05;100.00;99332.25;10458538;28;20087;-80
2023/12/05 18:12:44;;;;;;;25.67;16.50;;;;;;;3.08;100.00;99331.19;10452912;28;20044;-81
2023/12/05 18:17:48;;;;;;;31.38;17.10;;;;;;;3.11;100.00;99329.19;10439546;28;20076;-80
2023/12/05 18:22:51;;;;;;;25.85;15.82;;;;;;;3.14;100.00;99328.97;10440911;28;20512;-81
2023/12/05 18:27:54;;;;;;;24.88;17.25;;;;;;;3.17;100.00;99333.22;10444245;28;20076;-80
2023/12/05 18:32:59;;;;;;;24.30;16.88;;;;;;;3.18;100.00;99338.44;10455988;28;20071;-80
2023/12/05 18:38:02;;;;;;;32.53;21.35;;;;;;;3.18;100.00;99340.22;10452514;28;20451;-81
2023/12/05 18:43:05;;;;;;;37.40;23.88;;;;;;;3.18;100.00;99335.78;10460048;28;20075;-80
2023/12/05 18:48:10;;;;;;;34.40;21.20;;;;;;;3.15;100.00;99340.44;10455416;28;20041;-79
2023/12/05 18:53:13;;;;;;;32.28;20.92;;;;;;;3.17;100.00;99357.13;10452553;28;20086;-81
2023/12/05 18:58:16;;;;;;;35.90;20.58;;;;;;;3.16;100.00;99344.81;10442350;28;20049;-78
2023/12/05 19:03:20;;;;;;;36.05;22.08;;;;;;;3.11;100.00;99363.69;10461009;28;20045;-78
2023/12/05 19:08:24;;;;;;;31.27;20.00;;;;;;;3.07;100.00;99359.50;10470911;28;20045;-81
2023/12/05 19:13:27;;;;;;;29.73;19.33;;;;;;;3.09;100.00;99365.56;10460239;28;20520;-80
2023/12/05 19:18:32;;;;;;;40.25;25.70;;;;;;;3.09;100.00;99370.88;10451862;28;20051;-81
2023/12/05 19:23:36;;;;;;;29.33;19.38;;;;;;;3.10;100.00;99369.94;10441148;28;20500;-80
2023/12/05 19:28:40;;;;;;;27.60;18.00;;;;;;;3.06;100.00;99366.63;10398576;28;20061;-82
2023/12/05 19:33:54;;;;;;;30.15;19.63;;;;;;;3.12;100.00;99370.69;10416969;28;20048;-80
2023/12/05 19:38:57;;;;;;;27.85;17.77;;;;;;;3.15;100.00;99370.47;10412036;28;20052;-81
2023/12/05 19:44:00;;;;;;;29.30;18.73;;;;;;;3.16;100.00;99374.84;10423101;28;20053;-80
2023/12/05 19:49:05;;;;;;;25.63;16.67;;;;;;;3.21;100.00;99378.03;10430075;28;20042;-79
2023/12/05 19:54:08;;;;;;;28.13;17.15;;;;;;;3.25;100.00;99376.88;10420537;28;20077;-83
2023/12/05 19:59:11;;;;;;;26.38;15.43;;;;;;;3.26;100.00;99383.03;10434943;28;20054;-79
2023/12/05 20:04:16;;;;;;;23.58;15.23;;;;;;;3.28;100.00;99387.28;10416820;28;20065;-80
2023/12/05 20:09:21;;;;;;;19.38;13.95;;;;;;;3.31;100.00;99390.69;10423393;28;20069;-81
2023/12/05 20:14:25;;;;;;;21.05;13.32;;;;;;;3.32;100.00;99389.72;10423241;28;20099;-81
2023/12/05 20:19:30;;;;;;;19.20;13.13;;;;;;;3.30;100.00;99400.47;10430604;28;20049;-81
2023/12/05 20:24:33;;;;;;;19.52;14.05;;;;;;;3.34;100.00;99398.44;10426936;28;20042;-82
2023/12/05 20:29:36;;;;;;;12.68;8.52;;;;;;;3.11;100.00;99405.28;10435551;28;20121;-82
2023/12/05 20:34:41;;;;;;;9.15;6.47;;;;;;;2.67;100.00;99415.16;10430940;28;20038;-83
2023/12/05 20:39:44;;;;;;;8.65;4.57;;;;;;;2.15;100.00;99431.66;10422164;28;20115;-81
2023/12/05 20:44:47;;;;;;;8.95;6.05;;;;;;;1.75;100.00;99439.34;10424743;28;20041;-81
2023/12/05 20:49:55;;;;;;;9.05;4.75;;;;;;;1.75;100.00;99449.94;10426587;28;20045;-82
2023/12/05 20:54:58;;;;;;;10.23;6.20;;;;;;;1.83;100.00;99446.81;10412852;28;20041;-81
2023/12/05 21:00:03;;;;;;;12.27;6.13;;;;;;;1.60;100.00;99453.50;10406685;28;20578;-81
2023/12/05 21:05:08;;;;;;;11.43;5.35;;;;;;;1.44;100.00;99449.09;10420294;28;20034;-80
2023/12/05 21:10:11;;;;;;;9.63;6.30;;;;;;;1.40;100.00;99473.16;10396524;28;20050;-82
2023/12/05 21:15:14;;;;;;;4.65;3.20;;;;;;;1.05;100.00;99484.81;10426142;28;20048;-80
2023/12/05 21:20:20;;;;;;;10.32;5.65;;;;;;;1.00;100.00;99486.88;10422678;28;20114;-78
2023/12/05 21:25:25;;;;;;;10.27;6.70;;;;;;;1.00;100.00;99488.66;10421051;28;20076;-81
2023/12/05 21:30:29;;;;;;;10.45;6.50;;;;;;;1.22;100.00;99496.25;10425513;28;20053;-78
2023/12/05 21:35:35;;;;;;;8.13;5.18;;;;;;;0.72;100.00;99513.13;10427590;28;20044;-78
2023/12/05 21:40:38;;;;;;;13.45;6.70;;;;;;;0.63;100.00;99514.44;10416853;28;20067;-80
2023/12/05 21:45:42;;;;;;;4.88;3.35;;;;;;;0.66;100.00;99521.38;10411912;28;20046;-78
2023/12/05 21:50:47;;;;;;;12.60;6.30;;;;;;;0.79;100.00;99527.69;10414061;28;20033;-80
2023/12/05 21:55:50;;;;;;;10.57;5.75;;;;;;;0.39;100.00;99537.78;10437696;28;20064;-79
2023/12/05 22:00:53;;;;;;;9.93;6.50;;;;;;;0.46;100.00;99538.28;10430799;28;20679;-81
2023/12/05 22:05:58;;;;;;;12.73;6.43;;;;;;;0.32;100.00;99561.00;10420731;28;20128;-80
2023/12/05 22:11:01;;;;;;;8.82;5.05;;;;;;;0.36;100.00;99559.91;10427975;28;20034;-79
2023/12/05 22:16:05;;;;;;;10.80;6.25;;;;;;;0.60;100.00;99563.06;10430687;28;20041;-79
2023/12/05 22:21:13;;;;;;;11.82;6.63;;;;;;;0.59;100.00;99571.91;10414092;28;20105;-79
2023/12/05 22:26:19;;;;;;;10.63;5.57;;;;;;;0.41;100.00;99579.94;10421955;28;20037;-81
2023/12/05 22:31:26;;;;;;;12.77;6.20;;;;;;;0.42;100.00;99592.25;10411447;28;20137;-80
2023/12/05 22:36:31;;;;;;;11.00;6.20;;;;;;;0.45;100.00;99592.09;10417244;28;20038;-80
2023/12/05 22:41:34;;;;;;;14.60;7.50;;;;;;;0.62;100.00;99597.34;10416108;28;20064;-80
2023/12/05 22:46:37;;;;;;;13.65;7.47;;;;;;;0.50;100.00;99603.28;10430906;28;20033;-79
2023/12/05 22:51:42;;;;;;;16.38;7.22;;;;;;;0.51;100.00;99595.25;10418111;28;20042;-81
2023/12/05 22:56:45;;;;;;;14.80;7.40;;;;;;;0.44;100.00;99600.94;10414348;28;20048;-80
2023/12/05 23:01:48;;;;;;;12.77;7.60;;;;;;;0.34;100.00;99593.47;10398060;28;20045;-81
2023/12/05 23:06:53;;;;;;;9.23;5.85;;;;;;;0.45;100.00;99592.09;10398455;28;20030;-80
2023/12/05 23:11:56;;;;;;;11.90;7.43;;;;;;;0.45;100.00;99598.22;10426622;28;20072;-80
2023/12/05 23:16:59;;;;;;;11.15;6.68;;;;;;;0.26;100.00;99608.03;10439119;28;20052;-81